Time;durP1;ratioP1;P1;durP2;ratioP2;P2;SDS_P1;SDS_P2;PMS_P1;PMS_P2;Temp;Humidity;BMP_temperature;BMP_pressure;BME280_temperature;BME280_humidity;BME280_pressure;Samples;Min_cycle;Max_cycle;Signal;HPM_P1;HPM_P2
2021/09/10 00:02:22;;;;;;;10.43;8.27;;;17.80;86.20;;;;;;5011877;28;20084;-67
2021/09/10 00:04:48;;;;;;;9.05;7.28;;;17.70;86.20;;;;;;5009833;28;20080;-69
2021/09/10 00:07:13;;;;;;;11.32;8.18;;;17.70;86.50;;;;;;5010696;28;20026;-67
2021/09/10 00:09:39;;;;;;;12.32;7.80;;;17.60;86.70;;;;;;5010961;28;20053;-66
2021/09/10 00:12:04;;;;;;;9.93;7.75;;;17.60;86.80;;;;;;5010656;28;20042;-66
2021/09/10 00:14:30;;;;;;;8.20;7.13;;;17.50;86.90;;;;;;5009662;28;20078;-67
2021/09/10 00:16:56;;;;;;;12.57;7.38;;;17.50;87.20;;;;;;5011318;28;20034;-68
2021/09/10 00:19:21;;;;;;;9.23;7.53;;;17.50;87.20;;;;;;5030381;28;20474;-66
2021/09/10 00:21:47;;;;;;;10.75;8.15;;;17.50;87.40;;;;;;5030306;28;20390;-66
2021/09/10 00:24:12;;;;;;;13.38;7.95;;;17.60;87.50;;;;;;5028670;28;20033;-66
2021/09/10 00:26:38;;;;;;;9.00;7.22;;;17.60;87.40;;;;;;5026860;28;20022;-68
2021/09/10 00:29:04;;;;;;;10.40;7.10;;;17.60;87.40;;;;;;5025005;28;20538;-66
2021/09/10 00:31:30;;;;;;;8.98;7.45;;;17.60;87.40;;;;;;5030134;28;20037;-67
2021/09/10 00:33:55;;;;;;;11.02;8.43;;;17.60;87.40;;;;;;5029179;28;20056;-66
2021/09/10 00:36:21;;;;;;;10.25;7.20;;;17.70;87.50;;;;;;5030103;28;20378;-66
2021/09/10 00:38:46;;;;;;;9.80;8.25;;;17.70;87.40;;;;;;5030280;28;20079;-68
2021/09/10 00:41:12;;;;;;;11.77;7.15;;;17.70;87.40;;;;;;5030027;28;20505;-66
2021/09/10 00:43:38;;;;;;;15.63;8.52;;;17.60;87.30;;;;;;5029176;28;20029;-67
2021/09/10 00:46:03;;;;;;;13.05;8.45;;;17.60;87.40;;;;;;5029755;28;20022;-67
2021/09/10 00:48:29;;;;;;;17.33;8.35;;;17.50;87.50;;;;;;5029999;28;20029;-66
2021/09/10 00:50:55;;;;;;;14.55;8.77;;;17.50;87.70;;;;;;5029868;28;20169;-67
2021/09/10 00:53:21;;;;;;;11.40;8.60;;;17.40;88.30;;;;;;5029337;28;20505;-68
2021/09/10 00:55:47;;;;;;;9.80;8.30;;;17.40;88.00;;;;;;5030258;28;20366;-67
2021/09/10 00:58:13;;;;;;;12.60;8.68;;;17.40;88.20;;;;;;5013321;28;20022;-66
2021/09/10 01:00:39;;;;;;;9.32;7.93;;;17.40;88.30;;;;;;5016021;28;20030;-68
2021/09/10 01:03:05;;;;;;;10.98;7.72;;;17.30;88.40;;;;;;5009326;28;20494;-66
2021/09/10 01:05:31;;;;;;;11.65;8.10;;;17.40;88.60;;;;;;5010164;28;20058;-66
2021/09/10 01:07:59;;;;;;;10.10;7.82;;;17.40;88.60;;;;;;5010093;28;20026;-67
2021/09/10 01:10:26;;;;;;;11.57;8.10;;;17.40;88.60;;;;;;5010353;28;20072;-66
2021/09/10 01:12:53;;;;;;;11.95;7.70;;;17.40;88.60;;;;;;5009120;28;20116;-67
2021/09/10 01:15:19;;;;;;;10.85;7.45;;;17.40;88.60;;;;;;5019047;28;20025;-67
2021/09/10 01:17:44;;;;;;;12.52;7.07;;;17.40;88.80;;;;;;5029760;28;20030;-66
2021/09/10 01:20:11;;;;;;;9.15;7.05;;;17.40;88.80;;;;;;5029648;28;20100;-66
2021/09/10 01:22:37;;;;;;;13.10;6.70;;;17.40;88.80;;;;;;5028998;28;20025;-66
2021/09/10 01:25:22;;;;;;;7.05;6.00;;;17.40;88.80;;;;;;5029496;28;20090;-66
2021/09/10 01:27:54;;;;;;;11.63;6.30;;;17.40;88.80;;;;;;5010108;28;20018;-67
2021/09/10 01:30:25;;;;;;;7.75;6.53;;;17.40;89.00;;;;;;5027029;28;20428;-68
2021/09/10 01:32:51;;;;;;;7.43;5.80;;;17.40;88.90;;;;;;5029048;28;20042;-66
2021/09/10 01:35:17;;;;;;;8.13;6.05;;;17.40;88.80;;;;;;5029224;28;20075;-66
2021/09/10 01:37:43;;;;;;;10.73;5.88;;;17.40;88.80;;;;;;5033482;28;20166;-65
2021/09/10 01:40:10;;;;;;;7.05;5.82;;;17.40;88.80;;;;;;5033282;28;20581;-67
2021/09/10 01:42:36;;;;;;;6.03;5.43;;;17.40;88.80;;;;;;5032267;28;20033;-65
2021/09/10 01:45:02;;;;;;;9.27;6.07;;;17.40;88.70;;;;;;5033021;28;20029;-65
2021/09/10 01:47:28;;;;;;;10.82;5.85;;;17.40;88.70;;;;;;5033043;28;20034;-68
2021/09/10 01:49:54;;;;;;;8.90;6.22;;;17.30;88.60;;;;;;5032308;28;20403;-66
2021/09/10 01:52:19;;;;;;;10.63;5.95;;;17.30;88.60;;;;;;5032852;28;20034;-66
2021/09/10 01:54:46;;;;;;;7.45;5.85;;;17.30;88.70;;;;;;5032225;28;20034;-66
2021/09/10 01:57:11;;;;;;;7.50;6.18;;;17.20;88.60;;;;;;5024640;28;20394;-66
2021/09/10 01:59:37;;;;;;;8.18;6.32;;;17.20;88.80;;;;;;5028845;28;20080;-67
2021/09/10 02:02:03;;;;;;;6.53;5.88;;;17.10;88.80;;;;;;5027975;28;20332;-67
2021/09/10 02:04:28;;;;;;;9.90;6.03;;;17.10;88.90;;;;;;5031507;28;20316;-66
2021/09/10 02:06:54;;;;;;;7.22;5.75;;;17.00;89.00;;;;;;5032926;28;20740;-66
2021/09/10 02:09:20;;;;;;;8.90;6.47;;;17.00;89.10;;;;;;5032783;28;20112;-67
2021/09/10 02:11:45;;;;;;;8.43;6.70;;;16.90;89.10;;;;;;5045886;22;20049;-69
2021/09/10 02:14:11;;;;;;;7.75;5.63;;;16.90;89.20;;;;;;5031413;28;20030;-69
2021/09/10 02:16:36;;;;;;;7.00;5.57;;;16.80;89.40;;;;;;5031653;28;20025;-69
2021/09/10 02:19:02;;;;;;;12.23;7.20;;;16.80;89.50;;;;;;5032544;28;20036;-69
2021/09/10 02:21:28;;;;;;;9.98;6.68;;;16.70;89.50;;;;;;5032682;28;20059;-68
2021/09/10 02:23:53;;;;;;;7.53;6.38;;;16.80;89.60;;;;;;5014274;28;20050;-69
2021/09/10 02:26:19;;;;;;;6.55;5.88;;;16.80;89.60;;;;;;5032461;28;20599;-68
2021/09/10 02:28:45;;;;;;;7.68;5.57;;;16.70;89.70;;;;;;5032667;28;20032;-69
2021/09/10 02:31:10;;;;;;;10.25;5.90;;;16.70;89.80;;;;;;5032555;28;20034;-69
2021/09/10 02:33:36;;;;;;;8.18;6.25;;;16.70;89.70;;;;;;5031423;28;20132;-69
2021/09/10 02:36:02;;;;;;;8.30;5.80;;;16.70;89.70;;;;;;5031932;28;20029;-69
2021/09/10 02:38:27;;;;;;;11.07;6.75;;;16.70;89.70;;;;;;5032523;28;20032;-69
2021/09/10 02:40:53;;;;;;;10.93;6.40;;;16.70;89.70;;;;;;5032401;28;20025;-69
2021/09/10 02:43:19;;;;;;;7.68;5.88;;;16.70;89.60;;;;;;5013909;28;20025;-69
2021/09/10 02:45:45;;;;;;;7.25;6.00;;;16.70;89.60;;;;;;5012742;28;20029;-68
2021/09/10 02:48:10;;;;;;;8.40;6.35;;;16.70;89.70;;;;;;4993818;28;20470;-68
2021/09/10 02:50:37;;;;;;;8.02;6.43;;;16.70;89.80;;;;;;5030960;28;20025;-68
2021/09/10 02:53:03;;;;;;;7.28;6.45;;;16.70;89.80;;;;;;5013539;28;20022;-68
2021/09/10 02:55:29;;;;;;;9.77;7.07;;;16.60;89.90;;;;;;5014351;28;20022;-68
2021/09/10 02:57:55;;;;;;;8.10;6.78;;;16.60;90.00;;;;;;5014187;28;20037;-68
2021/09/10 03:00:21;;;;;;;6.30;5.70;;;16.50;90.00;;;;;;5012728;28;20026;-68
2021/09/10 03:02:46;;;;;;;8.70;6.00;;;16.50;90.10;;;;;;5031105;28;20024;-68
2021/09/10 03:05:12;;;;;;;9.90;6.47;;;16.50;90.10;;;;;;5022628;28;20029;-68
2021/09/10 03:07:38;;;;;;;8.93;6.65;;;16.60;90.10;;;;;;5031165;28;20647;-68
2021/09/10 03:10:05;;;;;;;9.23;6.85;;;16.60;90.10;;;;;;5028285;28;20053;-68
2021/09/10 03:12:31;;;;;;;8.45;6.90;;;16.60;90.10;;;;;;5020621;28;20030;-68
2021/09/10 03:14:57;;;;;;;9.23;6.53;;;16.60;90.00;;;;;;5027987;28;20445;-68
2021/09/10 03:17:23;;;;;;;9.63;5.88;;;16.60;90.10;;;;;;5031653;28;20040;-68
2021/09/10 03:19:48;;;;;;;7.75;6.30;;;16.50;90.10;;;;;;5031460;28;20459;-68
2021/09/10 03:22:14;;;;;;;8.05;6.35;;;16.50;90.10;;;;;;5031454;28;20550;-68
2021/09/10 03:24:39;;;;;;;10.27;6.40;;;16.50;90.10;;;;;;5030671;28;20021;-68
2021/09/10 03:27:05;;;;;;;8.48;6.65;;;16.50;90.10;;;;;;5031268;28;20033;-69
2021/09/10 03:29:31;;;;;;;7.43;6.63;;;16.50;90.10;;;;;;5013884;28;20053;-68
2021/09/10 03:31:56;;;;;;;9.98;7.15;;;16.50;90.10;;;;;;5031413;28;20523;-68
2021/09/10 03:34:22;;;;;;;8.75;6.68;;;16.50;90.10;;;;;;5012641;28;20029;-68
2021/09/10 03:36:48;;;;;;;9.20;7.22;;;16.40;90.10;;;;;;5030375;28;20425;-68
2021/09/10 03:39:15;;;;;;;10.35;7.55;;;16.40;90.10;;;;;;5031293;28;20056;-68
2021/09/10 03:41:40;;;;;;;10.73;7.32;;;16.40;90.20;;;;;;5031054;28;20025;-68
2021/09/10 03:44:06;;;;;;;9.68;7.55;;;16.30;90.20;;;;;;5030087;28;20354;-68
2021/09/10 03:46:31;;;;;;;13.98;8.60;;;16.20;90.30;;;;;;5031264;28;20028;-69
2021/09/10 03:48:57;;;;;;;11.65;8.70;;;16.30;90.50;;;;;;5031006;28;20026;-68
2021/09/10 03:51:23;;;;;;;11.75;8.27;;;16.20;90.50;;;;;;5030970;28;20449;-69
2021/09/10 03:53:48;;;;;;;11.50;9.15;;;16.30;90.50;;;;;;5030044;28;20032;-68
2021/09/10 03:56:14;;;;;;;11.27;9.23;;;16.30;90.50;;;;;;5031221;28;20108;-68
2021/09/10 03:58:40;;;;;;;14.27;9.40;;;16.30;90.50;;;;;;5030560;28;20060;-68
2021/09/10 04:01:05;;;;;;;14.05;9.20;;;16.30;90.50;;;;;;5005665;28;20470;-68
2021/09/10 04:03:31;;;;;;;14.15;9.02;;;16.30;90.60;;;;;;5011424;28;20599;-68
2021/09/10 04:05:57;;;;;;;10.75;8.90;;;16.30;90.60;;;;;;5030527;28;20120;-68
2021/09/10 04:08:22;;;;;;;10.40;8.23;;;16.30;90.60;;;;;;4994129;28;20528;-68
2021/09/10 04:10:48;;;;;;;12.15;8.32;;;16.20;90.70;;;;;;5011424;28;20108;-68
2021/09/10 04:13:13;;;;;;;15.70;9.25;;;16.20;90.70;;;;;;5010396;28;20036;-68
2021/09/10 04:15:39;;;;;;;10.18;7.93;;;16.20;90.80;;;;;;4993677;28;20458;-68
2021/09/10 04:18:05;;;;;;;14.02;9.00;;;16.10;90.80;;;;;;5011425;28;20026;-68
2021/09/10 04:20:30;;;;;;;13.23;9.30;;;16.20;90.90;;;;;;5026436;28;20036;-68
2021/09/10 04:22:56;;;;;;;14.75;9.20;;;16.20;90.90;;;;;;5030772;28;20087;-67
2021/09/10 04:25:22;;;;;;;12.05;9.20;;;16.20;90.90;;;;;;5032421;28;20021;-68
2021/09/10 04:27:47;;;;;;;13.57;9.98;;;16.20;91.00;;;;;;5016606;28;20504;-68
2021/09/10 04:30:13;;;;;;;11.25;9.20;;;16.20;91.00;;;;;;5000884;28;20482;-68
2021/09/10 04:32:39;;;;;;;13.35;9.50;;;16.20;91.00;;;;;;5017772;28;20022;-68
2021/09/10 04:35:07;;;;;;;14.55;10.05;;;16.20;91.00;;;;;;5024296;28;20548;-68
2021/09/10 04:37:33;;;;;;;14.25;10.40;;;16.20;91.00;;;;;;5030947;28;20033;-68
2021/09/10 04:40:00;;;;;;;11.90;9.38;;;16.30;91.00;;;;;;5031747;28;20031;-68
2021/09/10 04:42:26;;;;;;;14.05;9.77;;;16.30;91.00;;;;;;5014145;28;20029;-67
2021/09/10 04:44:52;;;;;;;14.02;10.30;;;16.30;91.00;;;;;;5030562;28;20021;-68
2021/09/10 04:47:18;;;;;;;13.27;9.50;;;16.30;91.00;;;;;;5030920;28;20048;-68
2021/09/10 04:49:44;;;;;;;13.27;9.35;;;16.30;91.00;;;;;;5030065;28;20517;-67
2021/09/10 04:52:09;;;;;;;15.32;10.48;;;16.30;91.00;;;;;;5030598;28;20057;-68
2021/09/10 04:54:35;;;;;;;12.70;9.82;;;16.30;91.10;;;;;;5030256;28;20029;-67
2021/09/10 04:57:00;;;;;;;12.57;9.65;;;16.30;91.10;;;;;;5027888;28;20025;-68
2021/09/10 04:59:26;;;;;;;14.57;10.57;;;16.30;91.10;;;;;;5025270;28;20057;-68
2021/09/10 05:01:52;;;;;;;13.88;10.07;;;16.30;91.10;;;;;;5035459;28;20482;-68
2021/09/10 05:04:23;;;;;;;13.73;10.23;;;16.30;91.10;;;;;;5031258;28;20018;-68
2021/09/10 05:06:49;;;;;;;13.65;9.82;;;16.30;91.10;;;;;;5014407;28;20024;-67
2021/09/10 05:09:15;;;;;;;14.30;10.48;;;16.30;91.10;;;;;;5027648;28;20030;-67
2021/09/10 05:11:40;;;;;;;14.85;10.40;;;16.30;91.20;;;;;;5014727;28;20159;-67
2021/09/10 05:14:06;;;;;;;12.32;8.93;;;16.30;91.20;;;;;;5034894;28;20048;-68
2021/09/10 05:16:31;;;;;;;11.68;9.13;;;16.30;91.20;;;;;;5034156;28;20053;-67
2021/09/10 05:18:57;;;;;;;11.55;9.05;;;16.30;91.20;;;;;;5033348;28;20034;-68
2021/09/10 05:21:23;;;;;;;12.13;8.63;;;16.30;91.30;;;;;;5033872;28;20132;-68
2021/09/10 05:23:48;;;;;;;9.30;8.00;;;16.30;91.20;;;;;;5032602;28;20030;-68
2021/09/10 05:26:14;;;;;;;9.48;7.57;;;16.30;91.20;;;;;;5031682;28;20025;-68
2021/09/10 05:28:40;;;;;;;8.48;7.10;;;16.30;91.20;;;;;;5014091;28;20024;-68
2021/09/10 05:31:06;;;;;;;9.05;7.18;;;16.30;91.20;;;;;;5014652;28;20021;-68
2021/09/10 05:33:31;;;;;;;10.23;6.97;;;16.30;91.20;;;;;;5014075;28;20121;-68
2021/09/10 05:35:57;;;;;;;11.13;7.20;;;16.40;91.20;;;;;;5013995;28;20026;-68
2021/09/10 05:38:22;;;;;;;9.90;7.18;;;16.30;91.10;;;;;;5029573;28;20022;-69
2021/09/10 05:40:48;;;;;;;9.98;7.43;;;16.30;91.10;;;;;;5031467;28;20068;-68
2021/09/10 05:43:13;;;;;;;11.30;7.60;;;16.30;91.10;;;;;;5014154;28;20449;-68
2021/09/10 05:45:39;;;;;;;9.40;7.13;;;16.30;91.10;;;;;;5033784;28;20017;-68
2021/09/10 05:48:04;;;;;;;8.13;7.28;;;16.30;91.10;;;;;;5034052;28;20022;-68
2021/09/10 05:50:30;;;;;;;8.85;7.32;;;16.30;91.20;;;;;;5015838;28;20025;-68
2021/09/10 05:52:56;;;;;;;9.77;7.13;;;16.30;91.20;;;;;;5033582;28;20082;-68
2021/09/10 05:55:21;;;;;;;12.98;7.35;;;16.30;91.20;;;;;;5033359;28;20059;-68
2021/09/10 05:57:47;;;;;;;9.27;7.32;;;16.30;91.10;;;;;;5032696;28;20049;-69
2021/09/10 06:00:13;;;;;;;12.45;7.80;;;16.20;91.20;;;;;;5033660;28;20072;-68
2021/09/10 06:02:41;;;;;;;9.45;6.93;;;16.20;91.20;;;;;;5033065;28;20025;-68
2021/09/10 06:05:07;;;;;;;11.90;7.97;;;16.20;91.30;;;;;;5033568;28;20028;-68
2021/09/10 06:07:32;;;;;;;8.07;7.25;;;16.20;91.20;;;;;;5033605;28;20030;-68
2021/09/10 06:09:58;;;;;;;12.18;7.65;;;16.20;91.10;;;;;;5033385;28;20063;-68
2021/09/10 06:12:24;;;;;;;14.25;9.25;;;16.10;91.20;;;;;;5033278;28;20060;-66
2021/09/10 06:14:50;;;;;;;12.57;9.35;;;16.10;91.30;;;;;;5026153;28;20029;-68
2021/09/10 06:17:16;;;;;;;13.00;9.15;;;16.20;91.40;;;;;;5032148;28;20104;-66
2021/09/10 06:19:41;;;;;;;15.02;9.95;;;16.20;91.40;;;;;;5032910;28;20485;-69
2021/09/10 06:22:07;;;;;;;15.27;11.00;;;16.20;91.40;;;;;;5031839;28;20036;-66
2021/09/10 06:24:33;;;;;;;15.75;10.02;;;16.10;91.30;;;;;;5032554;28;20032;-66
2021/09/10 06:26:58;;;;;;;12.57;9.20;;;16.10;91.30;;;;;;5027077;28;20026;-68
2021/09/10 06:29:24;;;;;;;11.75;9.57;;;16.10;91.30;;;;;;4997962;28;20026;-69
2021/09/10 06:31:51;;;;;;;14.52;10.50;;;16.10;91.40;;;;;;5019676;28;20033;-70
2021/09/10 06:34:20;;;;;;;11.90;9.10;;;16.10;91.40;;;;;;5012596;28;20101;-66
2021/09/10 06:36:47;;;;;;;15.02;10.23;;;16.10;91.50;;;;;;5016927;28;20056;-68
2021/09/10 06:39:14;;;;;;;12.18;9.25;;;16.10;91.60;;;;;;5015143;28;20040;-68
2021/09/10 06:41:39;;;;;;;13.20;10.27;;;16.10;91.70;;;;;;5032792;28;20090;-68
2021/09/10 06:44:05;;;;;;;13.05;10.27;;;16.20;91.70;;;;;;5032195;28;20108;-68
2021/09/10 06:46:30;;;;;;;11.27;9.10;;;16.30;91.70;;;;;;5032701;28;20032;-68
2021/09/10 06:48:56;;;;;;;15.68;10.50;;;16.40;91.70;;;;;;5032600;28;20473;-69
2021/09/10 06:51:21;;;;;;;12.98;9.18;;;16.40;91.70;;;;;;5032431;28;20023;-68
2021/09/10 06:53:47;;;;;;;13.25;10.18;;;16.50;91.70;;;;;;5032037;28;20021;-68
2021/09/10 06:56:12;;;;;;;14.05;9.15;;;16.60;91.70;;;;;;5032462;28;20366;-68
2021/09/10 06:58:38;;;;;;;13.38;9.38;;;16.60;91.60;;;;;;5012085;28;20425;-69
2021/09/10 07:01:06;;;;;;;11.25;8.93;;;16.70;91.70;;;;;;5012645;28;20372;-68
2021/09/10 07:03:31;;;;;;;13.75;9.85;;;16.80;91.60;;;;;;5011751;28;20022;-66
2021/09/10 07:05:57;;;;;;;14.35;10.65;;;16.80;91.50;;;;;;5013933;28;20018;-66
2021/09/10 07:08:22;;;;;;;11.35;8.90;;;16.90;91.50;;;;;;5032393;28;20017;-66
2021/09/10 07:10:48;;;;;;;9.63;8.18;;;17.00;91.50;;;;;;5032120;28;20021;-67
2021/09/10 07:13:13;;;;;;;9.70;7.93;;;17.10;91.50;;;;;;5031560;28;20525;-67
2021/09/10 07:15:40;;;;;;;12.05;7.88;;;17.20;91.30;;;;;;5014272;28;20028;-66
2021/09/10 07:18:06;;;;;;;8.85;7.57;;;17.40;91.30;;;;;;5017737;28;20026;-66
2021/09/10 07:20:31;;;;;;;13.20;8.07;;;17.50;91.10;;;;;;5011761;28;20389;-67
2021/09/10 07:22:57;;;;;;;10.40;8.10;;;17.80;91.00;;;;;;5030634;28;20025;-66
2021/09/10 07:25:22;;;;;;;10.68;7.35;;;18.00;90.80;;;;;;5031365;28;20022;-67
2021/09/10 07:27:48;;;;;;;8.63;6.38;;;18.40;90.60;;;;;;5018282;28;20093;-67
2021/09/10 07:30:14;;;;;;;8.73;6.32;;;18.80;90.20;;;;;;5011544;28;20022;-68
2021/09/10 07:32:39;;;;;;;7.22;5.70;;;19.40;89.40;;;;;;5010856;28;20026;-68
2021/09/10 07:35:07;;;;;;;6.32;5.45;;;19.80;88.40;;;;;;5010992;28;20037;-66
2021/09/10 07:37:33;;;;;;;7.63;5.55;;;20.00;87.80;;;;;;5011832;28;20029;-66
2021/09/10 07:39:59;;;;;;;10.55;5.82;;;20.30;87.50;;;;;;5013487;28;20033;-66
2021/09/10 07:42:25;;;;;;;9.73;6.13;;;20.90;85.90;;;;;;5030892;28;20033;-66
2021/09/10 07:44:51;;;;;;;10.10;5.20;;;21.50;84.20;;;;;;5030699;28;20347;-66
2021/09/10 07:47:17;;;;;;;10.35;7.80;;;22.00;83.20;;;;;;5031099;28;20084;-66
2021/09/10 07:49:43;;;;;;;5.60;4.88;;;22.60;82.10;;;;;;5030784;28;20052;-66
2021/09/10 07:52:09;;;;;;;8.18;5.47;;;23.20;80.60;;;;;;5030724;28;20090;-66
2021/09/10 07:54:35;;;;;;;7.55;5.22;;;23.60;78.50;;;;;;5030433;28;20025;-66
2021/09/10 07:57:00;;;;;;;5.65;4.82;;;24.00;77.70;;;;;;5024505;28;20053;-67
2021/09/10 07:59:26;;;;;;;7.32;4.97;;;24.40;76.90;;;;;;5029189;28;20370;-66
2021/09/10 08:01:52;;;;;;;4.63;4.20;;;24.70;75.10;;;;;;5030905;28;20108;-66
2021/09/10 08:04:17;;;;;;;5.95;5.07;;;25.00;74.80;;;;;;5012981;28;20056;-67
2021/09/10 08:06:43;;;;;;;11.55;6.57;;;25.40;74.10;;;;;;5032981;28;20021;-66
2021/09/10 08:09:08;;;;;;;7.63;4.82;;;25.90;73.10;;;;;;5027112;28;20017;-67
2021/09/10 08:11:34;;;;;;;5.55;4.85;;;26.20;72.00;;;;;;5032466;28;20115;-68
2021/09/10 08:14:02;;;;;;;4.63;4.20;;;26.60;70.90;;;;;;5030230;28;20075;-68
2021/09/10 08:16:28;;;;;;;9.60;5.20;;;26.80;69.60;;;;;;5030213;28;20037;-70
2021/09/10 08:18:54;;;;;;;5.80;4.50;;;27.10;68.40;;;;;;5022650;28;20017;-68
2021/09/10 08:21:20;;;;;;;5.63;4.10;;;27.10;68.00;;;;;;5012539;28;20117;-68
2021/09/10 08:23:45;;;;;;;7.03;4.43;;;27.10;68.40;;;;;;5030213;28;20063;-68
2021/09/10 08:26:11;;;;;;;5.45;4.05;;;27.10;68.20;;;;;;5017537;28;20472;-69
2021/09/10 08:28:36;;;;;;;4.82;4.25;;;27.10;67.50;;;;;;4992999;28;20026;-68
2021/09/10 08:31:02;;;;;;;5.78;4.60;;;26.90;67.50;;;;;;5016956;28;20029;-69
2021/09/10 08:33:28;;;;;;;7.93;4.88;;;26.80;67.60;;;;;;5029649;28;20029;-68
2021/09/10 08:35:54;;;;;;;6.70;4.32;;;26.50;68.20;;;;;;5030117;28;20496;-68
2021/09/10 08:38:19;;;;;;;6.43;5.03;;;26.40;68.40;;;;;;5012973;28;20029;-67
2021/09/10 08:40:46;;;;;;;6.10;4.13;;;26.30;68.20;;;;;;5010849;28;20114;-71
2021/09/10 08:43:13;;;;;;;4.72;4.22;;;26.30;68.10;;;;;;5010132;28;20383;-67
2021/09/10 08:45:40;;;;;;;5.65;4.00;;;26.20;68.30;;;;;;5011443;28;20738;-68
2021/09/10 08:48:06;;;;;;;5.97;4.63;;;26.20;68.60;;;;;;5021702;28;20042;-68
2021/09/10 08:50:32;;;;;;;5.50;4.20;;;26.20;67.50;;;;;;5034567;28;20521;-68
2021/09/10 08:52:58;;;;;;;6.20;4.40;;;26.00;67.60;;;;;;5034030;28;20100;-68
2021/09/10 08:55:24;;;;;;;4.85;4.30;;;25.90;68.10;;;;;;5035034;28;20469;-68
2021/09/10 08:57:54;;;;;;;7.25;4.55;;;25.90;67.90;;;;;;5021050;28;20018;-68
2021/09/10 09:00:32;;;;;;;7.18;4.10;;;25.90;67.70;;;;;;5031013;28;20084;-68
2021/09/10 09:03:06;;;;;;;4.40;4.00;;;25.90;66.80;;;;;;5014141;28;20092;-68
2021/09/10 09:05:32;;;;;;;6.40;4.35;;;25.80;67.00;;;;;;5024638;28;20018;-68
2021/09/10 09:08:17;;;;;;;7.00;4.55;;;25.80;67.50;;;;;;5034591;28;20035;-68
2021/09/10 09:10:58;;;;;;;5.22;4.32;;;25.90;67.00;;;;;;5034024;28;20033;-68
2021/09/10 09:13:34;;;;;;;5.03;4.50;;;25.90;67.30;;;;;;5033664;28;20049;-68
2021/09/10 09:16:20;;;;;;;5.35;4.55;;;26.00;66.50;;;;;;5034388;28;20061;-68
2021/09/10 09:18:51;;;;;;;16.52;4.78;;;25.90;66.30;;;;;;4996662;28;20384;-69
2021/09/10 09:21:45;;;;;;;5.43;4.85;;;25.80;66.80;;;;;;5013920;28;20509;-69
2021/09/10 09:24:14;;;;;;;9.32;4.57;;;25.70;66.30;;;;;;5033408;28;20025;-68
2021/09/10 09:26:40;;;;;;;6.00;4.55;;;25.60;66.10;;;;;;5026524;28;20018;-69
2021/09/10 09:29:12;;;;;;;8.02;5.43;;;25.50;66.40;;;;;;5033379;28;20025;-68
2021/09/10 09:31:38;;;;;;;6.88;4.97;;;25.40;66.20;;;;;;5025431;28;20113;-67
2021/09/10 09:34:05;;;;;;;6.57;4.78;;;25.40;66.90;;;;;;5013127;28;20018;-67
2021/09/10 09:36:32;;;;;;;7.72;5.03;;;25.60;66.40;;;;;;4996002;28;20037;-66
2021/09/10 09:38:58;;;;;;;6.78;5.00;;;25.70;66.20;;;;;;5019153;28;20107;-66
2021/09/10 09:41:25;;;;;;;5.22;4.53;;;25.70;65.70;;;;;;5022892;28;20048;-67
2021/09/10 09:44:10;;;;;;;6.38;5.32;;;25.80;65.90;;;;;;5030336;28;20021;-66
2021/09/10 09:46:36;;;;;;;5.82;5.20;;;25.70;65.00;;;;;;5015614;28;20033;-66
2021/09/10 09:49:10;;;;;;;6.30;4.90;;;25.60;65.50;;;;;;5033041;28;20018;-66
2021/09/10 09:51:36;;;;;;;6.43;4.30;;;25.60;65.40;;;;;;5033347;28;20452;-67
2021/09/10 09:54:02;;;;;;;7.60;5.68;;;25.60;66.20;;;;;;5032117;28;20030;-67
2021/09/10 09:56:31;;;;;;;13.15;5.70;;;25.60;66.80;;;;;;5032577;28;20101;-67
2021/09/10 09:58:58;;;;;;;15.07;6.15;;;25.40;68.10;;;;;;5032803;28;20029;-68
2021/09/10 10:01:24;;;;;;;6.20;4.90;;;25.40;71.20;;;;;;5033262;28;20022;-67
2021/09/10 10:03:50;;;;;;;5.75;3.92;;;25.60;71.90;;;;;;5032314;28;20541;-67
2021/09/10 10:06:25;;;;;;;4.25;3.85;;;25.60;70.30;;;;;;5032757;28;20100;-66
2021/09/10 10:09:07;;;;;;;4.05;3.65;;;25.50;69.00;;;;;;5027395;28;20478;-67
2021/09/10 10:11:43;;;;;;;5.47;3.92;;;25.50;69.20;;;;;;5031831;28;20040;-67
2021/09/10 10:14:13;;;;;;;4.38;3.60;;;25.40;70.30;;;;;;5031930;28;20036;-67
2021/09/10 10:16:40;;;;;;;3.95;3.65;;;25.40;69.20;;;;;;5032830;28;20104;-67
2021/09/10 10:19:21;;;;;;;4.10;3.50;;;25.30;69.40;;;;;;5032867;28;20025;-67
2021/09/10 10:21:52;;;;;;;7.75;3.30;;;25.40;71.10;;;;;;5032540;28;20032;-69
2021/09/10 10:24:44;;;;;;;4.57;3.90;;;25.50;71.20;;;;;;5013986;28;20030;-67
2021/09/10 10:27:39;;;;;;;6.30;4.18;;;25.60;71.60;;;;;;5009742;28;20029;-66
2021/09/10 10:30:15;;;;;;;4.43;4.03;;;25.80;70.80;;;;;;5006333;28;20167;-66
2021/09/10 10:32:51;;;;;;;5.55;4.00;;;25.90;71.40;;;;;;5031230;28;20126;-67
2021/09/10 10:35:18;;;;;;;5.18;4.00;;;25.90;70.40;;;;;;5014242;28;20017;-66
2021/09/10 10:38:11;;;;;;;6.00;3.83;;;25.70;70.60;;;;;;5025861;28;20595;-68
2021/09/10 10:40:48;;;;;;;4.15;3.50;;;25.60;70.20;;;;;;5010486;28;20040;-68
2021/09/10 10:43:22;;;;;;;4.28;3.88;;;25.70;70.80;;;;;;5031420;28;20017;-68
2021/09/10 10:45:48;;;;;;;6.65;3.70;;;25.90;70.90;;;;;;5032323;28;20470;-68
2021/09/10 10:48:32;;;;;;;4.57;4.03;;;25.90;70.00;;;;;;5032020;28;20036;-67
2021/09/10 10:51:22;;;;;;;4.60;3.97;;;26.00;69.20;;;;;;5014396;28;20018;-68
2021/09/10 10:53:47;;;;;;;4.70;3.85;;;25.90;69.00;;;;;;5031122;28;20092;-69
2021/09/10 10:56:25;;;;;;;5.47;4.10;;;25.90;67.70;;;;;;5014286;28;20113;-70
2021/09/10 10:59:13;;;;;;;7.80;3.97;;;25.70;68.00;;;;;;5013966;28;20429;-69
2021/09/10 11:02:16;;;;;;;6.50;4.28;;;25.60;68.90;;;;;;5031996;28;20053;-69
2021/09/10 11:04:43;;;;;;;6.75;5.03;;;25.50;69.10;;;;;;5030607;28;20501;-70
2021/09/10 11:07:08;;;;;;;4.88;4.47;;;25.40;69.00;;;;;;5010614;28;20025;-70
2021/09/10 11:09:34;;;;;;;4.60;4.20;;;25.30;69.10;;;;;;5015211;28;20017;-70
2021/09/10 11:12:00;;;;;;;4.95;4.45;;;25.30;70.20;;;;;;5026174;28;20029;-69
2021/09/10 11:14:33;;;;;;;6.05;4.85;;;25.30;71.30;;;;;;5030389;28;20052;-70
2021/09/10 11:17:12;;;;;;;5.30;4.40;;;25.40;71.00;;;;;;5031427;28;20648;-70
2021/09/10 11:19:38;;;;;;;7.47;5.00;;;25.50;70.70;;;;;;5032865;28;20048;-70
2021/09/10 11:22:04;;;;;;;4.72;4.28;;;25.50;71.40;;;;;;5036206;28;20541;-69
2021/09/10 11:24:30;;;;;;;6.53;4.65;;;25.60;70.70;;;;;;5026793;28;20029;-69
2021/09/10 11:26:56;;;;;;;7.00;4.80;;;25.60;69.80;;;;;;5011594;28;20513;-71
2021/09/10 11:29:22;;;;;;;10.68;5.40;;;25.60;70.50;;;;;;5011253;28;20032;-69
2021/09/10 11:31:47;;;;;;;6.82;4.80;;;25.60;70.70;;;;;;5011686;28;20193;-69
2021/09/10 11:34:33;;;;;;;5.22;4.72;;;25.70;69.90;;;;;;5010531;28;20018;-69
2021/09/10 11:37:03;;;;;;;5.32;4.57;;;25.60;70.80;;;;;;4992914;28;20394;-68
2021/09/10 11:39:29;;;;;;;8.02;4.55;;;25.60;72.00;;;;;;5010677;28;20063;-69
2021/09/10 11:41:55;;;;;;;6.38;5.00;;;25.70;72.00;;;;;;5011448;28;20034;-68
2021/09/10 11:44:20;;;;;;;8.02;5.60;;;25.70;71.40;;;;;;5011062;28;20022;-69
2021/09/10 11:46:47;;;;;;;7.45;4.90;;;25.60;71.10;;;;;;5010739;28;20025;-72
2021/09/10 11:49:13;;;;;;;5.50;4.95;;;25.50;70.90;;;;;;5011283;28;20359;-69
2021/09/10 11:51:45;;;;;;;11.85;4.97;;;25.50;70.60;;;;;;5011042;28;20030;-68
2021/09/10 11:54:13;;;;;;;5.35;4.85;;;25.50;70.60;;;;;;5010903;28;20428;-69
2021/09/10 11:56:39;;;;;;;7.00;4.88;;;25.60;71.50;;;;;;5030439;28;20116;-68
2021/09/10 11:59:16;;;;;;;7.45;4.30;;;25.70;70.80;;;;;;5013028;28;20071;-68
2021/09/10 12:01:43;;;;;;;8.25;5.05;;;25.80;70.90;;;;;;5026630;28;20018;-68
2021/09/10 12:04:29;;;;;;;5.07;4.63;;;25.90;71.80;;;;;;5010656;28;20018;-68
2021/09/10 12:06:58;;;;;;;5.82;4.70;;;25.90;70.60;;;;;;5015741;28;20105;-68
2021/09/10 12:09:30;;;;;;;9.02;4.70;;;25.80;70.70;;;;;;5021894;28;20021;-68
2021/09/10 12:12:17;;;;;;;7.28;4.70;;;25.70;69.20;;;;;;5030262;28;20382;-68
2021/09/10 12:14:52;;;;;;;8.27;5.18;;;25.60;69.50;;;;;;5030252;28;20059;-67
2021/09/10 12:17:23;;;;;;;6.63;4.85;;;25.80;70.30;;;;;;5030567;28;20056;-68
2021/09/10 12:20:08;;;;;;;7.55;4.75;;;25.80;70.00;;;;;;5010682;28;20033;-68
2021/09/10 12:22:47;;;;;;;6.10;4.78;;;25.90;70.20;;;;;;5010115;28;20022;-69
2021/09/10 12:25:57;;;;;;;6.03;5.03;;;25.90;70.40;;;;;;4993421;28;20022;-68
2021/09/10 12:28:28;;;;;;;7.00;4.82;;;25.90;69.50;;;;;;5011549;28;20022;-69
2021/09/10 12:31:10;;;;;;;10.73;6.47;;;25.80;70.10;;;;;;5012669;28;20497;-69
2021/09/10 12:33:38;;;;;;;7.53;4.57;;;25.80;70.90;;;;;;5029853;28;20025;-69
2021/09/10 12:36:10;;;;;;;6.00;4.88;;;25.90;70.30;;;;;;5019736;28;20072;-68
2021/09/10 12:38:41;;;;;;;6.35;4.50;;;25.80;70.40;;;;;;5002637;28;20485;-69
2021/09/10 12:41:08;;;;;;;5.07;4.57;;;25.80;69.40;;;;;;5029974;28;20108;-69
2021/09/10 12:43:34;;;;;;;6.03;4.55;;;25.80;70.00;;;;;;5029630;28;20059;-69
2021/09/10 12:45:59;;;;;;;7.93;5.35;;;25.80;69.80;;;;;;5012090;28;20063;-69
2021/09/10 12:48:26;;;;;;;6.15;5.40;;;25.90;71.10;;;;;;5048018;28;20626;-69